Andover, United Kingdom
Current Conditions -  °F | °C
As of 12:50 AM on Wednesday 26 Nov 2014 (Local Time) from EGVP Reporting Station
Overcast Overcast  
Wind Chill: 39°   Ceiling: 1500
Heat Index: 43°   Visibility: 2.1mi
Dew Point: 43°   Wind: 7mph
Humidity: 100%   Direction: 30°NNE
Pressure: 29.94"   Gusts: NA
Location:  51.21°N, 1.48°W
Report Text: EGVP 260050Z AUTO 03006KT 3500 // OVC015/// 06/06 Q1014
Loading
Personal Weather Stations






























Interactive Weather Map New forecast layout! Learn more

10-Day Weather Forecast

Advertisements
Track Severe Weather on mobile